createdAt,value
2017-11-17T00:00:46.559Z,82.1
2017-11-17T00:01:46.262Z,82.2
2017-11-17T00:02:46.543Z,82.48
2017-11-17T00:03:46.288Z,81.92
2017-11-17T00:04:46.304Z,82.29
2017-11-17T00:05:46.575Z,82.39
2017-11-17T00:06:46.586Z,82.01
2017-11-17T00:07:46.599Z,81.92
2017-11-17T00:08:46.609Z,82.01
2017-11-17T00:09:46.632Z,82.57
2017-11-17T00:10:46.645Z,81.92
2017-11-17T00:11:46.396Z,82.01
2017-11-17T00:12:46.408Z,82.1
2017-11-17T00:13:46.421Z,82.01
2017-11-17T00:14:46.688Z,81.25
2017-11-17T00:15:46.702Z,81.53
2017-11-17T00:16:46.730Z,81.72
2017-11-17T00:17:46.522Z,81.63
2017-11-17T00:18:46.750Z,81.15
2017-11-17T00:19:46.755Z,82.2
2017-11-17T00:20:46.513Z,82.29
2017-11-17T00:21:46.525Z,82.29
2017-11-17T00:22:46.804Z,82.2
2017-11-17T00:23:46.548Z,82.29
2017-11-17T00:24:46.829Z,82.95
2017-11-17T00:25:46.840Z,82.67
2017-11-17T00:26:46.848Z,81.92
2017-11-17T00:27:46.859Z,82.39
2017-11-17T00:28:46.871Z,81.92
2017-11-17T00:29:46.886Z,81.15
2017-11-17T00:30:46.902Z,81.44
2017-11-17T00:31:46.654Z,81.34
2017-11-17T00:32:46.721Z,82.2
2017-11-17T00:33:46.938Z,82.1
2017-11-17T00:34:46.948Z,82.01
2017-11-17T00:35:46.963Z,81.92
2017-11-17T00:36:46.981Z,81.82
2017-11-17T00:37:46.732Z,81.34
2017-11-17T00:38:47.004Z,81.44
2017-11-17T00:39:47.015Z,82.2
2017-11-17T00:40:47.039Z,82.57
2017-11-17T00:41:47.049Z,82.91
2017-11-17T00:42:47.060Z,82.91
2017-11-17T00:43:46.810Z,82.95
2017-11-17T00:44:47.082Z,82.48
2017-11-17T00:45:47.101Z,82.48
2017-11-17T00:46:46.850Z,81.82
2017-11-17T00:47:47.174Z,82.1
2017-11-17T00:48:47.136Z,82.01
2017-11-17T00:49:46.887Z,81.63
2017-11-17T00:50:47.160Z,81.34
2017-11-17T00:51:46.914Z,81.53
2017-11-17T00:52:46.930Z,81.06
2017-11-17T00:53:46.943Z,80.96
2017-11-17T00:54:46.953Z,81.34
2017-11-17T00:55:47.225Z,80.96
2017-11-17T00:56:46.981Z,80.87
2017-11-17T00:57:47.001Z,81.15
2017-11-17T00:58:47.265Z,81.06
2017-11-17T00:59:47.277Z,80.53
2017-11-17T01:00:47.304Z,80.53
2017-11-17T01:01:47.047Z,80.49
2017-11-17T01:02:47.368Z,80.96
2017-11-17T01:03:47.333Z,81.01
2017-11-17T01:04:47.350Z,80.68
2017-11-17T01:05:47.367Z,80.49
2017-11-17T01:06:47.377Z,81.15
2017-11-17T01:07:47.387Z,81.72
2017-11-17T01:08:47.396Z,81.34
2017-11-17T01:09:47.413Z,81.25
2017-11-17T01:10:47.427Z,81.82
2017-11-17T01:11:47.437Z,82.29
2017-11-17T01:12:47.194Z,82.29
2017-11-17T01:13:47.464Z,82.86
2017-11-17T01:14:47.220Z,82.39
2017-11-17T01:15:47.489Z,83.14
2017-11-17T01:16:47.509Z,83.71
2017-11-17T01:17:47.570Z,83.71
2017-11-17T01:18:47.274Z,83.62
2017-11-17T01:19:47.549Z,82.95
2017-11-17T01:20:47.300Z,82.48
2017-11-17T01:21:47.571Z,82.57
2017-11-17T01:22:47.585Z,82.01
2017-11-17T01:23:47.598Z,82.1
2017-11-17T01:24:47.616Z,82.01
2017-11-17T01:25:47.628Z,82.2
2017-11-17T01:26:47.637Z,82.1
2017-11-17T01:27:47.392Z,82.01
2017-11-17T01:28:47.408Z,82.1
2017-11-17T01:29:47.679Z,82.2
2017-11-17T01:30:47.698Z,82.1
2017-11-17T01:31:47.701Z,81.53
2017-11-17T01:32:47.774Z,81.44
2017-11-17T01:33:47.730Z,81.06
2017-11-17T01:34:47.740Z,81.53
2017-11-17T01:35:47.759Z,81.72
2017-11-17T01:36:47.789Z,82.1
2017-11-17T01:37:47.525Z,82.01
2017-11-17T01:38:47.545Z,82.1
2017-11-17T01:39:47.807Z,82.01
2017-11-17T01:40:47.565Z,82.2
2017-11-17T01:41:47.836Z,82.29
2017-11-17T01:42:47.852Z,82.57
2017-11-17T01:43:47.610Z,83.24
2017-11-17T01:44:47.875Z,82.86
2017-11-17T01:45:47.889Z,82.86
2017-11-17T01:46:47.901Z,81.82
2017-11-17T01:47:47.974Z,82.01
2017-11-17T01:48:47.928Z,82.1
2017-11-17T01:49:47.952Z,82.48
2017-11-17T01:50:47.703Z,83.24
2017-11-17T01:51:47.968Z,82.86
2017-11-17T01:52:47.979Z,83.14
2017-11-17T01:53:48.020Z,83.24
2017-11-17T01:54:48.014Z,83.9
2017-11-17T01:55:47.764Z,83.81
2017-11-17T01:56:48.040Z,83.71
2017-11-17T01:57:48.050Z,83.71
2017-11-17T01:58:48.057Z,83.81
2017-11-17T01:59:48.074Z,83.14
2017-11-17T02:00:48.089Z,83.14
2017-11-17T02:01:47.844Z,82.67
2017-11-17T02:02:47.906Z,82.57
2017-11-17T02:03:48.128Z,82.48
2017-11-17T02:04:48.144Z,82.01
2017-11-17T02:05:48.155Z,82.01
2017-11-17T02:06:48.164Z,82.1
2017-11-17T02:07:47.922Z,82.1
2017-11-17T02:08:47.935Z,82.29
2017-11-17T02:09:48.207Z,82.01
2017-11-17T02:10:48.216Z,82.2
2017-11-17T02:11:48.234Z,82.48
2017-11-17T02:12:48.247Z,81.53
2017-11-17T02:13:48.255Z,81.67
2017-11-17T02:14:48.013Z,81.25
2017-11-17T02:15:48.028Z,82.01
2017-11-17T02:16:48.303Z,82.2
2017-11-17T02:17:48.310Z,82.29
2017-11-17T02:18:48.373Z,82.29
2017-11-17T02:19:48.084Z,82.1
2017-11-17T02:20:48.091Z,81.72
2017-11-17T02:21:48.364Z,81.53
2017-11-17T02:22:48.375Z,81.63
2017-11-17T02:23:48.390Z,81.57
2017-11-17T02:24:48.408Z,81.38
2017-11-17T02:25:48.160Z,81.53
2017-11-17T02:26:48.440Z,81.67
2017-11-17T02:27:48.445Z,81.86
2017-11-17T02:28:48.456Z,81.76
2017-11-17T02:29:48.470Z,81.67
2017-11-17T02:30:48.490Z,80.72
2017-11-17T02:31:48.240Z,81.63
2017-11-17T02:32:48.513Z,81.15
2017-11-17T02:33:48.313Z,82.01
2017-11-17T02:34:48.537Z,82.01
2017-11-17T02:35:48.555Z,81.34
2017-11-17T02:36:48.600Z,81.63
2017-11-17T02:37:48.579Z,81.34
2017-11-17T02:38:48.609Z,81.53
2017-11-17T02:39:48.601Z,81.53
2017-11-17T02:40:48.618Z,81.44
2017-11-17T02:41:48.627Z,81.67
2017-11-17T02:42:48.650Z,81.63
2017-11-17T02:43:48.671Z,81.63
2017-11-17T02:44:48.412Z,81.82
2017-11-17T02:45:48.425Z,80.87
2017-11-17T02:46:48.440Z,80.96
2017-11-17T02:47:48.707Z,81.53
2017-11-17T02:48:48.780Z,81.53
2017-11-17T02:49:48.736Z,81.63
2017-11-17T02:50:48.748Z,80.87
2017-11-17T02:51:48.764Z,81.34
2017-11-17T02:52:48.771Z,80.87
2017-11-17T02:53:48.531Z,81.01
2017-11-17T02:54:48.797Z,80.53
2017-11-17T02:55:48.826Z,81.06
2017-11-17T02:56:48.829Z,81.15
2017-11-17T02:57:48.842Z,80.87
2017-11-17T02:58:48.850Z,80.72
2017-11-17T02:59:48.869Z,80.53
2017-11-17T03:00:48.882Z,80.34
2017-11-17T03:01:48.894Z,80.44
2017-11-17T03:02:48.657Z,80.63
2017-11-17T03:03:48.919Z,80.53
2017-11-17T03:04:48.935Z,81.53
2017-11-17T03:05:48.687Z,81.72
2017-11-17T03:06:49.020Z,82.2
2017-11-17T03:07:48.971Z,82.1
2017-11-17T03:08:49.017Z,81.57
2017-11-17T03:09:48.997Z,81.63
2017-11-17T03:10:49.013Z,81.67
2017-11-17T03:11:49.022Z,81.57
2017-11-17T03:12:49.057Z,81.01
2017-11-17T03:13:49.052Z,80.91
2017-11-17T03:14:48.809Z,80.91
2017-11-17T03:15:49.077Z,80.91
2017-11-17T03:16:49.093Z,80.53
2017-11-17T03:17:49.105Z,80.34
2017-11-17T03:18:49.118Z,80.34
2017-11-17T03:19:49.139Z,80.4
2017-11-17T03:20:49.148Z,80.96
2017-11-17T03:21:48.901Z,80.91
2017-11-17T03:22:49.178Z,80.34
2017-11-17T03:23:49.185Z,80.25
2017-11-17T03:24:49.200Z,80.25
2017-11-17T03:25:48.953Z,80.25
2017-11-17T03:26:49.224Z,79.77
2017-11-17T03:27:49.237Z,79.68
2017-11-17T03:28:48.994Z,79.58
2017-11-17T03:29:49.264Z,79.11
2017-11-17T03:30:49.284Z,79.02
2017-11-17T03:31:49.316Z,79.3
2017-11-17T03:32:49.307Z,79.58
2017-11-17T03:33:49.058Z,79.87
2017-11-17T03:34:49.332Z,79.64
2017-11-17T03:35:49.349Z,80.06
2017-11-17T03:36:49.359Z,79.49
2017-11-17T03:37:49.426Z,79.87
2017-11-17T03:38:49.387Z,79.49
2017-11-17T03:39:49.403Z,80.06
2017-11-17T03:40:49.418Z,80.25
2017-11-17T03:41:49.438Z,79.83
2017-11-17T03:42:49.440Z,79.58
2017-11-17T03:43:49.451Z,79.58
2017-11-17T03:44:49.469Z,79.49
2017-11-17T03:45:49.221Z,79.11
2017-11-17T03:46:49.497Z,79.36
2017-11-17T03:47:49.502Z,79.77
2017-11-17T03:48:49.259Z,79.68
2017-11-17T03:49:49.274Z,79.64
2017-11-17T03:50:49.547Z,79.96
2017-11-17T03:51:49.303Z,79.77
2017-11-17T03:52:49.619Z,79.58
2017-11-17T03:53:49.583Z,79.26
2017-11-17T03:54:49.602Z,79.58
2017-11-17T03:55:49.623Z,79.39
2017-11-17T03:56:49.632Z,79.58
2017-11-17T03:57:49.638Z,79.21
2017-11-17T03:58:49.651Z,78.83
2017-11-17T03:59:49.407Z,78.92
2017-11-17T04:00:49.677Z,78.92
2017-11-17T04:01:49.436Z,79.02
2017-11-17T04:02:49.704Z,78.92
2017-11-17T04:03:49.461Z,78.73
2017-11-17T04:04:49.472Z,78.83
2017-11-17T04:05:49.488Z,79.02
2017-11-17T04:06:49.756Z,78.26
2017-11-17T04:07:49.775Z,78.54
2017-11-17T04:08:49.784Z,78.35
2017-11-17T04:09:49.793Z,78.07
2017-11-17T04:10:49.815Z,78.07
2017-11-17T04:11:49.881Z,78.26
2017-11-17T04:12:49.838Z,78.83
2017-11-17T04:13:49.594Z,79.02
2017-11-17T04:14:49.869Z,79.02
2017-11-17T04:15:49.880Z,78.92
2017-11-17T04:16:49.891Z,78.45
2017-11-17T04:17:49.647Z,78.35
2017-11-17T04:18:49.918Z,78.07
2017-11-17T04:19:49.677Z,78.07
2017-11-17T04:20:49.946Z,78.35
2017-11-17T04:21:49.956Z,78.64
2017-11-17T04:22:49.970Z,78.35
2017-11-17T04:23:49.981Z,78.26
2017-11-17T04:24:49.996Z,78.16
2017-11-17T04:25:50.013Z,77.97
2017-11-17T04:26:50.033Z,77.97
2017-11-17T04:27:49.780Z,78.07
2017-11-17T04:28:49.796Z,78.54
2017-11-17T04:29:49.857Z,77.97
2017-11-17T04:30:50.084Z,77.88
2017-11-17T04:31:50.096Z,77.88
2017-11-17T04:32:49.847Z,77.88
2017-11-17T04:33:50.116Z,78.16
2017-11-17T04:34:49.875Z,77.97
2017-11-17T04:35:50.145Z,78.16
2017-11-17T04:36:50.161Z,77.78
2017-11-17T04:37:49.916Z,77.78
2017-11-17T04:38:49.929Z,78.35
2017-11-17T04:39:49.940Z,78.07
2017-11-17T04:40:49.955Z,78.26
2017-11-17T04:41:49.971Z,78.35
2017-11-17T04:42:50.240Z,78.54
2017-11-17T04:43:49.996Z,78.35
2017-11-17T04:44:50.314Z,78.07
2017-11-17T04:45:50.366Z,78.35
2017-11-17T04:46:50.293Z,78.92
2017-11-17T04:47:50.049Z,79.21
2017-11-17T04:48:50.321Z,79.21
2017-11-17T04:49:50.340Z,79.49
2017-11-17T04:50:50.355Z,79.39
2017-11-17T04:51:50.102Z,79.58
2017-11-17T04:52:50.118Z,79.96
2017-11-17T04:53:50.387Z,80.06
2017-11-17T04:54:50.404Z,79.58
2017-11-17T04:55:50.161Z,79.68
2017-11-17T04:56:50.441Z,79.11
2017-11-17T04:57:50.441Z,79.02
2017-11-17T04:58:50.223Z,78.73
2017-11-17T04:59:50.471Z,78.64
2017-11-17T05:00:50.482Z,78.73
2017-11-17T05:01:50.548Z,78.73
2017-11-17T05:02:50.516Z,77.88
2017-11-17T05:03:50.527Z,78.07
2017-11-17T05:04:50.285Z,78.35
2017-11-17T05:05:50.299Z,78.54
2017-11-17T05:06:50.565Z,78.07
2017-11-17T05:07:50.321Z,77.97
2017-11-17T05:08:50.589Z,78.35
2017-11-17T05:09:50.631Z,78.35
2017-11-17T05:10:50.618Z,78.45
2017-11-17T05:11:50.634Z,78.83
2017-11-17T05:12:50.694Z,78.92
2017-11-17T05:13:50.665Z,78.64
2017-11-17T05:14:50.670Z,78.64
2017-11-17T05:15:50.430Z,79.21
2017-11-17T05:16:50.768Z,78.64
2017-11-17T05:17:50.716Z,78.83
2017-11-17T05:18:50.472Z,78.92
2017-11-17T05:19:50.739Z,78.45
2017-11-17T05:20:50.504Z,78.26
2017-11-17T05:21:50.768Z,78.35
2017-11-17T05:22:50.524Z,78.35
2017-11-17T05:23:50.804Z,78.45
2017-11-17T05:24:50.552Z,78.45
2017-11-17T05:25:50.831Z,79.11
2017-11-17T05:26:50.579Z,78.64
2017-11-17T05:27:50.864Z,78.83
2017-11-17T05:28:50.861Z,78.64
2017-11-17T05:29:50.877Z,78.88
2017-11-17T05:30:50.639Z,78.54
2017-11-17T05:31:50.955Z,78.92
2017-11-17T05:32:50.661Z,78.54
2017-11-17T05:33:50.931Z,78.35
2017-11-17T05:34:50.941Z,78.92
2017-11-17T05:35:50.958Z,78.45
2017-11-17T05:36:51.184Z,78.26
2017-11-17T05:37:50.726Z,78.07
2017-11-17T05:38:51.001Z,78.54
2017-11-17T05:39:50.755Z,78.16
2017-11-17T05:40:51.027Z,77.97
2017-11-17T05:41:51.044Z,78.16
2017-11-17T05:42:51.061Z,78.16
2017-11-17T05:43:51.069Z,78.07
2017-11-17T05:44:51.087Z,78.16
2017-11-17T05:45:51.097Z,78.45
2017-11-17T05:46:50.897Z,79.02
2017-11-17T05:47:51.116Z,79.02
2017-11-17T05:48:51.133Z,79.21
2017-11-17T05:49:50.888Z,79.58
2017-11-17T05:50:51.160Z,79.64
2017-11-17T05:51:51.174Z,79.49
2017-11-17T05:52:51.185Z,79.39
2017-11-17T05:53:51.199Z,79.87
2017-11-17T05:54:50.956Z,80.21
2017-11-17T05:55:50.970Z,80.25
2017-11-17T05:56:50.981Z,79.96
2017-11-17T05:57:50.997Z,80.25
2017-11-17T05:58:51.275Z,79.96
2017-11-17T05:59:51.023Z,80.4
2017-11-17T06:00:51.294Z,80.68
2017-11-17T06:01:51.360Z,80.3
2017-11-17T06:02:51.068Z,80.58
2017-11-17T06:03:51.333Z,81.44
2017-11-17T06:04:51.091Z,81.82
2017-11-17T06:05:51.362Z,81.34
2017-11-17T06:06:51.121Z,81.15
2017-11-17T06:07:51.389Z,80.96
2017-11-17T06:08:51.412Z,80.87
2017-11-17T06:09:51.416Z,80.87
2017-11-17T06:10:51.432Z,80.87
2017-11-17T06:11:51.442Z,80.53
2017-11-17T06:12:51.202Z,80.96
2017-11-17T06:13:51.226Z,81.06
2017-11-17T06:14:51.485Z,80.49
2017-11-17T06:15:51.501Z,80.25
2017-11-17T06:16:51.514Z,80.34
2017-11-17T06:17:51.577Z,79.77
2017-11-17T06:18:51.545Z,79.96
2017-11-17T06:19:51.557Z,79.96
2017-11-17T06:20:51.309Z,79.87
2017-11-17T06:21:51.579Z,79.87
2017-11-17T06:22:51.589Z,79.58
2017-11-17T06:23:51.617Z,79.96
2017-11-17T06:24:51.362Z,79.96
2017-11-17T06:25:51.633Z,80.44
2017-11-17T06:26:51.648Z,80.44
2017-11-17T06:27:51.662Z,80.15
2017-11-17T06:28:51.419Z,80.34
2017-11-17T06:29:51.691Z,80.15
2017-11-17T06:30:51.702Z,80.77
2017-11-17T06:31:51.460Z,80.63
2017-11-17T06:32:51.782Z,81.01
2017-11-17T06:33:51.747Z,81.53
2017-11-17T06:34:51.761Z,81.44
2017-11-17T06:35:51.774Z,81.82
2017-11-17T06:36:51.782Z,81.63
2017-11-17T06:37:51.798Z,81.44
2017-11-17T06:38:51.815Z,80.87
2017-11-17T06:39:51.825Z,80.53
2017-11-17T06:40:51.582Z,80.34
2017-11-17T06:41:51.861Z,80.15
2017-11-17T06:42:51.612Z,79.96
2017-11-17T06:43:51.623Z,79.39
2017-11-17T06:44:51.894Z,79.49
2017-11-17T06:45:51.649Z,79.39
2017-11-17T06:46:51.669Z,79.21
2017-11-17T06:47:51.984Z,79.3
2017-11-17T06:48:51.694Z,79.68
2017-11-17T06:49:51.991Z,79.3
2017-11-17T06:50:51.979Z,78.54
2017-11-17T06:51:51.993Z,78.54
2017-11-17T06:52:52.002Z,78.07
2017-11-17T06:53:52.033Z,77.97
2017-11-17T06:54:52.034Z,78.54
2017-11-17T06:55:52.059Z,78.26
2017-11-17T06:56:52.061Z,78.35
2017-11-17T06:57:52.075Z,78.2
2017-11-17T06:58:51.830Z,76.97
2017-11-17T06:59:51.846Z,77.83
2017-11-17T07:00:52.121Z,77.73
2017-11-17T07:01:51.871Z,78.39
2017-11-17T07:02:52.196Z,77.06
2017-11-17T07:03:52.156Z,77.16
2017-11-17T07:04:52.174Z,77.35
2017-11-17T07:05:52.186Z,77.25
2017-11-17T07:06:52.199Z,77.35
2017-11-17T07:07:51.977Z,76.87
2017-11-17T07:08:52.233Z,76.68
2017-11-17T07:09:52.243Z,76.68
2017-11-17T07:10:52.258Z,76.12
2017-11-17T07:11:52.278Z,76.78
2017-11-17T07:12:52.286Z,76.59
2017-11-17T07:13:52.304Z,76.87
2017-11-17T07:14:52.314Z,76.78
2017-11-17T07:15:52.085Z,76.68
2017-11-17T07:16:52.355Z,76.87
2017-11-17T07:17:52.356Z,76.68
2017-11-17T07:18:52.421Z,77.16
2017-11-17T07:19:52.390Z,77.25
2017-11-17T07:20:52.406Z,77.16
2017-11-17T07:21:52.416Z,77.25
2017-11-17T07:22:52.429Z,77.06
2017-11-17T07:23:52.442Z,77.25
2017-11-17T07:24:52.459Z,77.54
2017-11-17T07:25:52.481Z,77.64
2017-11-17T07:26:52.485Z,76.97
2017-11-17T07:27:52.501Z,76.97
2017-11-17T07:28:52.517Z,77.06
2017-11-17T07:29:52.527Z,77.06
2017-11-17T07:30:52.543Z,76.68
2017-11-17T07:31:52.567Z,76.87
2017-11-17T07:32:52.571Z,77.35
2017-11-17T07:33:52.328Z,77.06
2017-11-17T07:34:52.341Z,77.06
2017-11-17T07:35:52.356Z,76.68
2017-11-17T07:36:52.391Z,76.87
2017-11-17T07:37:52.438Z,77.35
2017-11-17T07:38:52.655Z,76.78
2017-11-17T07:39:52.408Z,77.16
2017-11-17T07:40:52.684Z,77.35
2017-11-17T07:41:52.713Z,77.06
2017-11-17T07:42:52.710Z,77.45
2017-11-17T07:43:52.726Z,77.54
2017-11-17T07:44:52.738Z,76.97
2017-11-17T07:45:52.753Z,76.87
2017-11-17T07:46:52.771Z,77.16
2017-11-17T07:47:52.781Z,77.16
2017-11-17T07:48:52.796Z,77.54
2017-11-17T07:49:52.808Z,77.25
2017-11-17T07:50:52.565Z,77.06
2017-11-17T07:51:52.843Z,77.35
2017-11-17T07:52:52.643Z,77.83
2017-11-17T07:53:52.876Z,76.97
2017-11-17T07:54:52.622Z,77.92
2017-11-17T07:55:52.901Z,78.2
2017-11-17T07:56:52.915Z,78.11
2017-11-17T07:57:52.672Z,77.83
2017-11-17T07:58:52.680Z,77.83
2017-11-17T07:59:52.948Z,78.11
2017-11-17T08:00:52.971Z,77.64
2017-11-17T08:01:52.983Z,77.25
2017-11-17T08:02:52.995Z,76.59
2017-11-17T08:03:53.005Z,77.06
2017-11-17T08:04:52.762Z,76.78
2017-11-17T08:05:53.040Z,76.87
2017-11-17T08:06:53.049Z,76.68
2017-11-17T08:07:53.063Z,77.54
2017-11-17T08:08:52.821Z,77.35
2017-11-17T08:09:53.097Z,77.25
2017-11-17T08:10:53.108Z,76.68
2017-11-17T08:11:53.169Z,76.63
2017-11-17T08:12:53.136Z,76.15
2017-11-17T08:13:53.150Z,76.25
2017-11-17T08:14:53.167Z,75.68
2017-11-17T08:15:53.177Z,75.87
2017-11-17T08:16:53.188Z,75.68
2017-11-17T08:17:53.205Z,76.15
2017-11-17T08:18:53.220Z,76.06
2017-11-17T08:19:53.233Z,76.25
2017-11-17T08:20:53.251Z,75.96
2017-11-17T08:21:53.271Z,75.68
2017-11-17T08:22:53.296Z,75.4
2017-11-17T08:23:53.297Z,75.21
2017-11-17T08:24:53.312Z,75.59
2017-11-17T08:25:53.322Z,75.4
2017-11-17T08:26:53.081Z,74.35
2017-11-17T08:27:53.418Z,74.16
2017-11-17T08:28:53.377Z,73.79
2017-11-17T08:29:53.125Z,74.16
2017-11-17T08:30:53.397Z,73.82
2017-11-17T08:31:53.417Z,73.63
2017-11-17T08:32:53.425Z,73.41
2017-11-17T08:33:53.445Z,73.41
2017-11-17T08:34:53.464Z,73.69
2017-11-17T08:35:53.471Z,73.69
2017-11-17T08:36:53.223Z,73.6
2017-11-17T08:37:53.498Z,73.79
2017-11-17T08:38:53.258Z,73.5
2017-11-17T08:39:53.534Z,73.69
2017-11-17T08:40:53.539Z,73.82
2017-11-17T08:41:53.556Z,73.54
2017-11-17T08:42:53.572Z,73.07
2017-11-17T08:43:53.586Z,72.88
2017-11-17T08:44:53.611Z,72.97
2017-11-17T08:45:53.361Z,73.16
2017-11-17T08:46:53.635Z,72.59
2017-11-17T08:47:53.388Z,73.07
2017-11-17T08:48:53.661Z,73.72
2017-11-17T08:49:53.684Z,73.54
2017-11-17T08:50:53.696Z,72.78
2017-11-17T08:51:53.449Z,72.49
2017-11-17T08:52:53.728Z,72.49
2017-11-17T08:53:53.478Z,72.21
2017-11-17T08:54:53.753Z,72.3
2017-11-17T08:55:53.513Z,72.49
2017-11-17T08:56:53.780Z,71.55
2017-11-17T08:57:53.800Z,71.55
2017-11-17T08:58:53.812Z,71.55
2017-11-17T08:59:53.827Z,71.83
2017-11-17T09:00:53.846Z,71.73
2017-11-17T09:01:53.601Z,71.64
2017-11-17T09:02:53.899Z,71.83
2017-11-17T09:03:53.914Z,71.86
2017-11-17T09:04:53.903Z,71.11
2017-11-17T09:05:53.917Z,70.92
2017-11-17T09:06:53.675Z,70.25
2017-11-17T09:07:53.947Z,69.68
2017-11-17T09:08:53.968Z,69.3
2017-11-17T09:09:53.981Z,69.3
2017-11-17T09:10:53.737Z,69.53
2017-11-17T09:11:54.010Z,68.48
2017-11-17T09:12:54.027Z,68.48
2017-11-17T09:13:54.043Z,67.82
2017-11-17T09:14:54.056Z,67.72
2017-11-17T09:15:54.071Z,68.01
2017-11-17T09:16:53.832Z,67.72
2017-11-17T09:17:53.897Z,67.06
2017-11-17T09:18:53.862Z,66.96
2017-11-17T09:19:54.160Z,66.77
2017-11-17T09:20:54.154Z,66.96
2017-11-17T09:21:53.912Z,66.61
2017-11-17T09:22:54.186Z,66.71
2017-11-17T09:23:53.953Z,66.52
2017-11-17T09:24:54.229Z,65.67
2017-11-17T09:25:54.252Z,65.28
2017-11-17T09:26:54.255Z,65.19
2017-11-17T09:27:54.266Z,65
2017-11-17T09:28:54.285Z,65.38
2017-11-17T09:29:54.299Z,66.39
2017-11-17T09:30:54.314Z,66.3
2017-11-17T09:31:54.073Z,66.77
2017-11-17T09:32:54.160Z,66.87
2017-11-17T09:33:54.383Z,67.25
2017-11-17T09:34:54.382Z,66.39
2017-11-17T09:35:54.419Z,66.2
2017-11-17T09:36:54.159Z,66.58
2017-11-17T09:37:54.430Z,66.77
2017-11-17T09:38:54.447Z,67.06
2017-11-17T09:39:54.468Z,66.39
2017-11-17T09:40:54.480Z,66.49
2017-11-17T09:41:54.498Z,66.77
2017-11-17T09:42:54.513Z,67.15
2017-11-17T09:43:54.271Z,67.06
2017-11-17T09:44:54.547Z,66.87
2017-11-17T09:45:54.560Z,66.2
2017-11-17T09:46:54.575Z,66.3
2017-11-17T09:47:54.657Z,66.3
2017-11-17T09:48:54.353Z,66.77
2017-11-17T09:49:54.625Z,67.06
2017-11-17T09:50:54.642Z,67.53
2017-11-17T09:51:54.448Z,67.25
2017-11-17T09:52:54.675Z,67.72
2017-11-17T09:53:54.687Z,67.53
2017-11-17T09:54:54.710Z,67.44
2017-11-17T09:55:54.721Z,67.25
2017-11-17T09:56:54.749Z,67.15
2017-11-17T09:57:54.771Z,67.06
2017-11-17T09:58:54.769Z,67.44
2017-11-17T09:59:54.786Z,67.34
2017-11-17T10:00:54.805Z,67.5
2017-11-17T10:01:54.814Z,68.26
2017-11-17T10:02:54.832Z,68.64
2017-11-17T10:03:54.589Z,68.86
2017-11-17T10:04:54.872Z,68.92
2017-11-17T10:05:54.877Z,68.58
2017-11-17T10:06:54.946Z,68.01
2017-11-17T10:07:54.650Z,67.34
2017-11-17T10:08:54.668Z,67.72
2017-11-17T10:09:54.964Z,67.53
2017-11-17T10:10:54.954Z,67.15
2017-11-17T10:11:55.077Z,66.58
2017-11-17T10:12:54.989Z,66.39
2017-11-17T10:13:54.746Z,65.82
2017-11-17T10:14:55.026Z,65.86
2017-11-17T10:15:54.788Z,65.38
2017-11-17T10:16:54.793Z,65.09
2017-11-17T10:17:55.067Z,64.81
2017-11-17T10:18:54.829Z,64.24
2017-11-17T10:19:54.849Z,63.95
2017-11-17T10:20:55.125Z,63.89
2017-11-17T10:21:55.182Z,64.08
2017-11-17T10:22:55.170Z,63.6
2017-11-17T10:23:55.166Z,63.51
2017-11-17T10:24:54.929Z,63.13
2017-11-17T10:25:55.200Z,62.56
2017-11-17T10:26:54.960Z,62.27
2017-11-17T10:27:54.978Z,61.9
2017-11-17T10:28:55.252Z,62.08
2017-11-17T10:29:55.269Z,61.42
2017-11-17T10:30:55.031Z,60.75
2017-11-17T10:31:55.317Z,61.16
2017-11-17T10:32:55.067Z,61.16
2017-11-17T10:33:55.343Z,60.75
2017-11-17T10:34:55.095Z,60.85
2017-11-17T10:35:55.372Z,60.94
2017-11-17T10:36:55.387Z,61.04
2017-11-17T10:37:55.404Z,60.85
2017-11-17T10:38:55.425Z,61.42
2017-11-17T10:39:55.230Z,61.99
2017-11-17T10:40:55.466Z,61.61
2017-11-17T10:41:55.478Z,61.04
2017-11-17T10:42:55.488Z,60.85
2017-11-17T10:43:55.250Z,60.85
2017-11-17T10:44:55.527Z,61.13
2017-11-17T10:45:55.546Z,61.07
2017-11-17T10:46:55.559Z,61.23
2017-11-17T10:47:55.575Z,61.32
2017-11-17T10:48:55.597Z,61.9
2017-11-17T10:49:55.609Z,61.9
2017-11-17T10:50:55.628Z,62.46
2017-11-17T10:51:55.388Z,61.8
2017-11-17T10:52:55.663Z,61.8
2017-11-17T10:53:55.692Z,61.52
2017-11-17T10:54:55.457Z,61.42
2017-11-17T10:55:55.711Z,61.13
2017-11-17T10:56:55.728Z,61.26
2017-11-17T10:57:55.488Z,60.97
2017-11-17T10:58:55.766Z,61.13
2017-11-17T10:59:55.786Z,61.13
2017-11-17T11:00:55.542Z,61.13
2017-11-17T11:01:55.811Z,60.94
2017-11-17T11:02:55.841Z,61.23
2017-11-17T11:03:55.591Z,61.04
2017-11-17T11:04:55.608Z,60.75
2017-11-17T11:05:55.883Z,61.71
2017-11-17T11:06:55.900Z,61.61
2017-11-17T11:07:55.916Z,61.42
2017-11-17T11:08:55.953Z,60.75
2017-11-17T11:09:55.693Z,61.04
2017-11-17T11:10:55.709Z,60.94
2017-11-17T11:11:55.992Z,60.78
2017-11-17T11:12:56.007Z,60.88
2017-11-17T11:13:56.019Z,60.97
2017-11-17T11:14:56.040Z,59.93
2017-11-17T11:15:56.054Z,60.12
2017-11-17T11:16:56.073Z,59.45
2017-11-17T11:17:56.087Z,59.55
2017-11-17T11:18:56.115Z,60.21
2017-11-17T11:19:56.153Z,60.31
2017-11-17T11:20:56.138Z,60.21
2017-11-17T11:21:56.162Z,59.17
2017-11-17T11:22:56.187Z,58.79
2017-11-17T11:23:56.192Z,59.36
2017-11-17T11:24:56.205Z,59.27
2017-11-17T11:25:55.969Z,58.88
2017-11-17T11:26:56.240Z,59.29
2017-11-17T11:27:56.277Z,58.72
2017-11-17T11:28:56.277Z,58.15
2017-11-17T11:29:56.296Z,57.67
2017-11-17T11:30:56.312Z,57.67
2017-11-17T11:31:56.330Z,58.06
2017-11-17T11:32:56.347Z,58.53
2017-11-17T11:33:56.371Z,58.06
2017-11-17T11:34:56.122Z,58.15
2017-11-17T11:35:56.409Z,57.67
2017-11-17T11:36:56.419Z,57.67
2017-11-17T11:37:56.441Z,56.92
2017-11-17T11:38:56.455Z,56.53
2017-11-17T11:39:56.471Z,56.72
2017-11-17T11:40:56.232Z,57.58
2017-11-17T11:41:56.507Z,57.77
2017-11-17T11:42:56.266Z,58.25
2017-11-17T11:43:56.546Z,58.31
2017-11-17T11:44:56.559Z,58.4
2017-11-17T11:45:56.333Z,59.07
2017-11-17T11:46:56.600Z,59.36
2017-11-17T11:47:56.355Z,58.4
2017-11-17T11:48:56.633Z,58.31
2017-11-17T11:49:56.392Z,58.4
2017-11-17T11:50:56.666Z,58.59
2017-11-17T11:51:56.425Z,59.36
2017-11-17T11:52:56.443Z,59.27
2017-11-17T11:53:56.718Z,58.44
2017-11-17T11:54:56.737Z,58.59
2017-11-17T11:55:56.765Z,59.29
2017-11-17T11:56:56.778Z,58.62
2017-11-17T11:57:56.791Z,58.53
2017-11-17T11:58:56.550Z,58.5
2017-11-17T11:59:56.569Z,58.31
2017-11-17T12:00:56.886Z,58.79
2017-11-17T12:01:56.603Z,58.98
2017-11-17T12:02:56.622Z,59.55
2017-11-17T12:03:56.894Z,59.27
2017-11-17T12:04:56.914Z,59.07
2017-11-17T12:05:56.930Z,59.74
2017-11-17T12:06:56.953Z,59.27
2017-11-17T12:07:56.718Z,58.62
2017-11-17T12:08:56.733Z,58.15
2017-11-17T12:09:57.005Z,58.69
2017-11-17T12:10:56.761Z,58.4
2017-11-17T12:11:57.041Z,58.5
2017-11-17T12:12:56.797Z,58.5
2017-11-17T12:13:57.068Z,58.69
2017-11-17T12:14:57.088Z,59.27
2017-11-17T12:15:56.849Z,59.27
2017-11-17T12:16:56.864Z,59.07
2017-11-17T12:17:56.883Z,59.27
2017-11-17T12:18:56.899Z,59.55
2017-11-17T12:19:57.173Z,59.64
2017-11-17T12:20:57.196Z,59.55
2017-11-17T12:21:57.249Z,58.98
2017-11-17T12:22:57.228Z,59.27
2017-11-17T12:23:57.243Z,59.17
2017-11-17T12:24:57.262Z,59.74
2017-11-17T12:25:57.017Z,59.45
2017-11-17T12:26:57.040Z,59.17
2017-11-17T12:27:57.053Z,59.36
2017-11-17T12:28:57.340Z,59.74
2017-11-17T12:29:57.086Z,59.93
2017-11-17T12:30:57.369Z,60.6
2017-11-17T12:31:57.381Z,60.78
2017-11-17T12:32:57.407Z,59.93
2017-11-17T12:33:57.413Z,59.93
2017-11-17T12:34:57.433Z,60.12
2017-11-17T12:35:57.189Z,60.78
2017-11-17T12:36:57.464Z,60.85
2017-11-17T12:37:57.491Z,61.16
2017-11-17T12:38:57.496Z,60.88
2017-11-17T12:39:57.525Z,61.07
2017-11-17T12:40:57.534Z,61.07
2017-11-17T12:41:57.596Z,60.78
2017-11-17T12:42:57.576Z,61.16
2017-11-17T12:43:57.592Z,60.85
2017-11-17T12:44:57.604Z,61.16
2017-11-17T12:45:57.617Z,60.78
2017-11-17T12:46:57.376Z,60.6
2017-11-17T12:47:57.652Z,61.16
2017-11-17T12:48:57.670Z,61.16
2017-11-17T12:49:57.685Z,60.78
2017-11-17T12:50:57.703Z,61.07
2017-11-17T12:51:57.723Z,61.45
2017-11-17T12:52:57.738Z,61.26
2017-11-17T12:53:57.756Z,61.07
2017-11-17T12:54:57.513Z,61.45